Time;durP1;ratioP1;P1;durP2;ratioP2;P2;SDS_P1;SDS_P2;PMS_P1;PMS_P2;Temp;Humidity;BMP_temperature;BMP_pressure;BME280_temperature;BME280_humidity;BME280_pressure;Samples;Min_cycle;Max_cycle;Signal;HPM_P1;HPM_P2
2023/05/20 00:00:35;;;;;;;4.93;1.27;;;15.10;96.10;;;;;;4954283;29;20030;-69
2023/05/20 00:03:00;;;;;;;2.22;1.13;;;15.10;96.20;;;;;;4946156;28;20131;-70
2023/05/20 00:05:27;;;;;;;7.07;1.48;;;15.00;96.60;;;;;;4953322;29;20039;-70
2023/05/20 00:07:52;;;;;;;2.10;0.80;;;15.00;96.60;;;;;;4946544;28;20028;-69
2023/05/20 00:10:18;;;;;;;2.53;1.10;;;14.90;97.10;;;;;;4952221;29;20027;-69
2023/05/20 00:12:44;;;;;;;2.88;0.90;;;14.80;97.30;;;;;;4947363;28;20031;-69
2023/05/20 00:15:13;;;;;;;1.55;1.00;;;14.70;97.60;;;;;;4951034;29;20062;-70
2023/05/20 00:17:39;;;;;;;1.33;0.70;;;14.70;97.80;;;;;;4946961;28;20118;-69
2023/05/20 00:20:06;;;;;;;1.63;1.10;;;14.70;98.10;;;;;;4948927;29;20107;-70
2023/05/20 00:22:31;;;;;;;4.20;1.15;;;14.70;98.40;;;;;;4948964;28;20036;-69
2023/05/20 00:24:57;;;;;;;1.40;0.70;;;14.50;98.80;;;;;;4947801;29;20107;-69
2023/05/20 00:27:23;;;;;;;1.25;0.85;;;14.50;99.00;;;;;;4949452;28;20045;-70
2023/05/20 00:29:49;;;;;;;2.42;1.00;;;14.50;99.30;;;;;;4947738;29;20023;-70
2023/05/20 00:32:14;;;;;;;2.05;1.27;;;14.30;99.80;;;;;;4951078;28;20070;-70
2023/05/20 00:34:42;;;;;;;2.90;0.82;;;14.30;99.90;;;;;;4946808;29;20106;-69
2023/05/20 00:37:09;;;;;;;4.03;1.40;;;14.30;99.90;;;;;;4949992;28;20118;-70
2023/05/20 00:39:35;;;;;;;3.50;2.00;;;14.30;99.90;;;;;;4960169;28;20525;-70
2023/05/20 00:42:02;;;;;;;2.85;1.50;;;14.30;99.90;;;;;;4951690;28;20810;-70
2023/05/20 00:44:28;;;;;;;2.90;1.30;;;14.20;99.90;;;;;;4945714;28;20024;-70
2023/05/20 00:46:54;;;;;;;4.88;1.35;;;14.20;99.90;;;;;;4967581;28;20118;-68
2023/05/20 00:49:22;;;;;;;4.53;1.67;;;14.20;99.90;;;;;;4944195;29;20547;-70
2023/05/20 00:51:48;;;;;;;1.90;0.93;;;14.20;99.90;;;;;;4950082;28;20037;-70
2023/05/20 00:54:14;;;;;;;2.00;1.15;;;14.20;99.90;;;;;;4944387;29;20446;-71
2023/05/20 00:56:40;;;;;;;4.25;1.83;;;14.20;99.90;;;;;;4950087;28;20047;-69
2023/05/20 00:59:06;;;;;;;1.50;0.98;;;14.30;99.90;;;;;;4944290;29;20039;-69
2023/05/20 01:01:32;;;;;;;2.45;1.25;;;14.30;99.90;;;;;;4951829;28;20023;-69
2023/05/20 01:03:58;;;;;;;3.28;1.10;;;14.20;99.90;;;;;;4944080;28;20042;-69
2023/05/20 01:06:24;;;;;;;1.05;0.82;;;14.20;99.90;;;;;;4943400;28;20035;-69
2023/05/20 01:08:50;;;;;;;2.15;1.13;;;14.20;99.90;;;;;;4952595;29;20408;-69
2023/05/20 01:11:37;;;;;;;1.65;0.90;;;14.20;99.90;;;;;;4965724;28;20038;-69
2023/05/20 01:14:07;;;;;;;1.88;1.08;;;14.20;99.90;;;;;;4945451;28;20039;-69
2023/05/20 01:16:35;;;;;;;1.90;1.00;;;14.10;99.90;;;;;;4938393;28;20027;-69
2023/05/20 01:19:05;;;;;;;2.28;1.23;;;14.00;99.90;;;;;;4932721;29;20118;-71
2023/05/20 01:21:32;;;;;;;1.13;0.80;;;13.90;99.90;;;;;;4951613;28;20086;-68
2023/05/20 01:24:00;;;;;;;1.52;0.95;;;13.90;99.90;;;;;;4939790;29;20039;-68
2023/05/20 01:26:26;;;;;;;2.42;1.13;;;13.90;99.90;;;;;;4950849;28;20509;-68
2023/05/20 01:28:52;;;;;;;2.28;1.17;;;13.90;99.90;;;;;;4944958;28;20065;-68
2023/05/20 01:31:24;;;;;;;2.50;1.10;;;13.70;99.90;;;;;;4949561;28;20069;-68
2023/05/20 01:33:56;;;;;;;6.65;1.20;;;13.80;99.90;;;;;;4943974;29;20034;-68
2023/05/20 01:36:23;;;;;;;8.48;1.75;;;13.80;99.90;;;;;;4949374;28;20024;-68
2023/05/20 01:38:49;;;;;;;2.60;1.02;;;13.70;99.90;;;;;;4935378;29;20479;-69
2023/05/20 01:41:16;;;;;;;2.45;1.10;;;13.50;99.90;;;;;;4965452;28;20392;-68
2023/05/20 01:43:42;;;;;;;2.00;1.10;;;13.50;99.90;;;;;;4932390;29;20032;-69
2023/05/20 01:46:08;;;;;;;1.70;1.00;;;13.30;99.90;;;;;;4935844;28;20041;-69
2023/05/20 01:48:34;;;;;;;3.95;1.30;;;13.30;99.90;;;;;;4938469;29;20109;-67
2023/05/20 01:51:00;;;;;;;3.00;1.10;;;13.20;99.90;;;;;;4966632;28;20105;-68
2023/05/20 01:53:26;;;;;;;5.45;1.75;;;13.10;99.90;;;;;;4943559;29;20028;-69
2023/05/20 01:55:52;;;;;;;3.63;1.60;;;13.00;99.90;;;;;;4952534;28;20027;-68
2023/05/20 01:58:17;;;;;;;2.00;1.20;;;13.00;99.90;;;;;;4932765;28;20103;-68
2023/05/20 02:00:43;;;;;;;1.92;1.00;;;12.90;99.90;;;;;;4952368;28;20031;-68
2023/05/20 02:03:10;;;;;;;3.30;1.00;;;12.90;99.90;;;;;;4942289;28;20127;-69
2023/05/20 02:05:35;;;;;;;2.72;1.13;;;12.80;99.90;;;;;;4952694;28;20039;-69
2023/05/20 02:08:01;;;;;;;3.22;1.40;;;12.80;99.90;;;;;;4951577;28;20034;-68
2023/05/20 02:10:27;;;;;;;2.63;1.25;;;12.80;99.90;;;;;;4934596;28;20028;-69
2023/05/20 02:12:52;;;;;;;2.47;1.45;;;12.80;99.90;;;;;;4940545;28;20043;-69
2023/05/20 02:15:18;;;;;;;2.00;1.08;;;12.80;99.90;;;;;;4939975;29;20043;-69
2023/05/20 02:17:45;;;;;;;1.60;1.08;;;12.70;99.90;;;;;;4942017;28;20039;-69
2023/05/20 02:20:12;;;;;;;1.50;0.88;;;12.70;99.90;;;;;;4948137;29;20407;-69
2023/05/20 02:22:38;;;;;;;3.25;1.58;;;12.70;99.90;;;;;;4946201;28;20680;-68
2023/05/20 02:25:06;;;;;;;2.28;1.13;;;12.70;99.90;;;;;;4948018;29;20138;-68
2023/05/20 02:27:31;;;;;;;3.97;1.38;;;12.70;99.90;;;;;;4946861;28;20020;-68
2023/05/20 02:29:57;;;;;;;2.38;1.20;;;12.70;99.90;;;;;;4947017;29;20075;-69
2023/05/20 02:32:26;;;;;;;2.05;1.20;;;12.70;99.90;;;;;;4948116;28;20058;-68
2023/05/20 02:34:56;;;;;;;3.58;1.52;;;12.70;99.90;;;;;;4946402;29;20094;-68
2023/05/20 02:37:21;;;;;;;2.55;1.75;;;12.60;99.90;;;;;;4947872;28;20514;-68
2023/05/20 02:39:47;;;;;;;3.13;1.25;;;12.60;99.90;;;;;;4944089;29;20066;-68
2023/05/20 02:42:13;;;;;;;3.22;1.27;;;12.60;99.90;;;;;;4948390;28;20578;-69
2023/05/20 02:44:38;;;;;;;4.53;1.70;;;12.70;99.90;;;;;;4943394;29;20091;-69
2023/05/20 02:47:05;;;;;;;2.58;1.35;;;12.60;99.90;;;;;;4949452;28;20484;-69
2023/05/20 02:49:30;;;;;;;2.63;1.30;;;12.60;99.90;;;;;;4943466;28;20039;-68
2023/05/20 02:51:56;;;;;;;2.40;1.48;;;12.60;99.90;;;;;;4949962;28;20455;-68
2023/05/20 02:54:22;;;;;;;2.72;1.23;;;12.60;99.90;;;;;;4944354;29;20106;-68
2023/05/20 02:56:47;;;;;;;6.10;1.52;;;12.50;99.90;;;;;;4949282;28;20647;-69
2023/05/20 02:59:13;;;;;;;1.75;1.00;;;12.50;99.90;;;;;;4943808;29;20034;-68
2023/05/20 03:01:39;;;;;;;3.20;1.10;;;12.30;99.90;;;;;;4949770;28;20043;-70
2023/05/20 03:04:05;;;;;;;3.70;1.55;;;12.40;99.90;;;;;;4952963;28;20062;-70
2023/05/20 03:06:30;;;;;;;2.30;0.85;;;12.40;99.90;;;;;;4938567;28;20040;-70
2023/05/20 03:08:57;;;;;;;2.30;1.15;;;12.40;99.90;;;;;;4941289;28;20027;-70
2023/05/20 03:11:23;;;;;;;2.40;1.48;;;12.40;99.90;;;;;;4940614;28;20582;-69
2023/05/20 03:13:49;;;;;;;8.38;1.58;;;12.30;99.90;;;;;;4947547;28;20031;-69
2023/05/20 03:16:15;;;;;;;2.03;1.38;;;12.30;99.90;;;;;;4938230;28;20031;-70
2023/05/20 03:18:41;;;;;;;2.95;1.23;;;12.30;99.90;;;;;;4946950;28;20023;-69
2023/05/20 03:21:07;;;;;;;4.00;1.30;;;12.40;99.90;;;;;;4938311;28;20028;-69
2023/05/20 03:23:34;;;;;;;3.05;1.30;;;12.50;99.90;;;;;;4961696;28;20031;-69
2023/05/20 03:26:00;;;;;;;5.90;1.27;;;12.50;99.90;;;;;;4953961;28;20112;-69
2023/05/20 03:28:26;;;;;;;4.80;1.00;;;12.50;99.90;;;;;;4945536;29;20480;-69
2023/05/20 03:30:52;;;;;;;2.03;0.98;;;12.50;99.90;;;;;;4953177;28;20158;-68
2023/05/20 03:33:18;;;;;;;5.65;1.63;;;12.50;99.90;;;;;;4944846;29;20043;-70
2023/05/20 03:35:43;;;;;;;2.15;0.98;;;12.60;99.90;;;;;;4954192;29;20503;-69
2023/05/20 03:38:09;;;;;;;3.80;1.70;;;12.60;99.90;;;;;;4944842;28;20050;-69
2023/05/20 03:40:35;;;;;;;3.90;1.30;;;12.60;99.90;;;;;;4935204;28;20039;-70
2023/05/20 03:43:01;;;;;;;7.13;0.93;;;12.60;99.90;;;;;;4941921;28;20042;-69
2023/05/20 03:45:26;;;;;;;2.88;1.40;;;12.70;99.90;;;;;;4952423;29;20045;-70
2023/05/20 03:47:52;;;;;;;1.35;1.05;;;12.70;99.90;;;;;;4945551;28;20066;-70
2023/05/20 03:50:18;;;;;;;3.83;1.77;;;12.70;99.90;;;;;;4952298;29;20464;-70
2023/05/20 03:52:44;;;;;;;4.72;1.85;;;12.70;99.90;;;;;;4948128;28;20095;-69
2023/05/20 03:55:09;;;;;;;1.45;0.75;;;12.80;99.90;;;;;;4951087;29;20122;-70
2023/05/20 03:57:35;;;;;;;3.80;1.60;;;12.80;99.90;;;;;;4931042;29;20040;-69
2023/05/20 04:00:08;;;;;;;2.63;1.42;;;12.60;99.90;;;;;;4949331;29;20487;-69
2023/05/20 04:02:34;;;;;;;4.47;2.00;;;12.70;99.90;;;;;;4948873;28;20122;-69
2023/05/20 04:05:00;;;;;;;4.22;1.30;;;12.80;99.90;;;;;;4948141;29;20114;-69
2023/05/20 04:07:25;;;;;;;15.30;2.13;;;12.80;99.90;;;;;;4949712;28;20031;-69
2023/05/20 04:09:51;;;;;;;2.95;1.70;;;12.80;99.90;;;;;;4947888;29;20030;-69
2023/05/20 04:12:18;;;;;;;2.33;1.40;;;12.80;99.90;;;;;;4946078;28;20028;-68
2023/05/20 04:14:43;;;;;;;3.47;1.40;;;12.80;99.90;;;;;;4942137;29;20468;-69
2023/05/20 04:17:09;;;;;;;2.10;1.30;;;12.80;99.90;;;;;;4941907;28;20031;-69
2023/05/20 04:19:37;;;;;;;3.58;1.85;;;12.90;99.90;;;;;;4945105;28;20031;-68
2023/05/20 04:22:05;;;;;;;2.13;0.98;;;12.90;99.90;;;;;;4966458;28;20110;-69
2023/05/20 04:24:31;;;;;;;3.72;1.63;;;12.80;99.90;;;;;;4946000;29;20081;-69
2023/05/20 04:26:57;;;;;;;3.30;1.50;;;12.90;99.90;;;;;;4951424;28;20035;-69
2023/05/20 04:29:23;;;;;;;2.13;1.30;;;13.00;99.90;;;;;;4945396;28;20102;-69
2023/05/20 04:31:48;;;;;;;2.85;1.50;;;13.00;99.90;;;;;;4951485;28;20086;-69
2023/05/20 04:34:18;;;;;;;4.05;1.30;;;13.10;99.90;;;;;;4945913;28;20031;-69
2023/05/20 04:36:44;;;;;;;1.55;1.10;;;13.10;99.90;;;;;;4951347;28;20041;-70
2023/05/20 04:39:10;;;;;;;1.75;1.02;;;13.10;99.90;;;;;;4965955;23;20047;-69
2023/05/20 04:41:36;;;;;;;3.83;1.48;;;13.10;99.90;;;;;;4953260;29;20380;-70
2023/05/20 04:44:02;;;;;;;3.22;1.20;;;13.00;99.90;;;;;;4946138;28;20070;-70
2023/05/20 04:46:28;;;;;;;4.95;1.45;;;13.00;99.90;;;;;;4944568;28;20035;-69
2023/05/20 04:48:54;;;;;;;2.10;1.23;;;13.00;99.90;;;;;;4940944;28;20074;-69
2023/05/20 04:51:20;;;;;;;2.35;1.30;;;13.10;99.90;;;;;;4954071;28;20076;-70
2023/05/20 04:53:46;;;;;;;4.53;1.27;;;13.10;99.90;;;;;;4941211;28;20051;-69
2023/05/20 04:56:12;;;;;;;3.00;1.67;;;13.10;99.90;;;;;;4939635;29;20447;-69
2023/05/20 04:58:38;;;;;;;3.70;1.75;;;13.10;99.90;;;;;;4926619;29;20377;-70
2023/05/20 05:01:04;;;;;;;2.75;1.00;;;13.10;99.90;;;;;;4948314;29;20032;-69
2023/05/20 05:03:30;;;;;;;2.80;1.50;;;13.20;99.90;;;;;;4917480;29;20035;-69
2023/05/20 05:05:57;;;;;;;3.17;1.52;;;13.10;99.90;;;;;;4916093;29;20039;-69
2023/05/20 05:08:23;;;;;;;3.60;1.50;;;13.10;99.90;;;;;;4939059;29;20090;-69
2023/05/20 05:10:49;;;;;;;2.47;1.17;;;13.10;99.90;;;;;;4926744;29;20044;-69
2023/05/20 05:13:15;;;;;;;3.38;1.42;;;13.20;99.90;;;;;;4928157;29;20475;-68
2023/05/20 05:15:41;;;;;;;3.97;1.50;;;13.20;99.90;;;;;;4943507;29;20110;-71
2023/05/20 05:18:06;;;;;;;3.35;1.40;;;13.30;99.90;;;;;;4939376;29;20045;-73
2023/05/20 05:20:32;;;;;;;2.20;1.40;;;13.30;99.90;;;;;;4947737;28;20046;-73
2023/05/20 05:22:58;;;;;;;4.43;1.70;;;13.30;99.90;;;;;;4930863;29;20114;-72
2023/05/20 05:25:24;;;;;;;3.67;1.80;;;13.40;99.90;;;;;;4922678;29;20036;-72
2023/05/20 05:27:49;;;;;;;3.42;1.75;;;13.40;99.90;;;;;;4919895;29;20031;-72
2023/05/20 05:30:16;;;;;;;2.33;1.27;;;13.50;99.90;;;;;;4924599;29;20036;-72
2023/05/20 05:32:41;;;;;;;4.25;1.73;;;13.50;99.90;;;;;;4917800;29;20039;-72
2023/05/20 05:35:08;;;;;;;3.92;1.77;;;13.50;99.90;;;;;;4924610;29;20031;-73
2023/05/20 05:37:33;;;;;;;3.85;1.50;;;13.60;99.90;;;;;;4918920;29;20423;-73
2023/05/20 05:39:59;;;;;;;3.63;1.75;;;13.80;99.90;;;;;;4926775;29;20044;-72
2023/05/20 05:42:25;;;;;;;3.22;1.58;;;13.80;99.90;;;;;;4917240;29;20058;-71
2023/05/20 05:44:51;;;;;;;3.03;1.60;;;14.00;99.90;;;;;;4928639;29;20099;-71
2023/05/20 05:47:16;;;;;;;2.55;1.42;;;14.10;99.90;;;;;;4915101;29;20044;-70
2023/05/20 05:49:42;;;;;;;2.20;1.33;;;14.20;99.90;;;;;;4928791;29;20504;-73
2023/05/20 05:52:08;;;;;;;2.90;1.40;;;14.20;99.90;;;;;;4914792;29;20063;-71
2023/05/20 05:54:34;;;;;;;2.60;1.50;;;14.30;99.90;;;;;;4929818;29;20059;-72
2023/05/20 05:57:00;;;;;;;2.63;1.52;;;14.30;99.90;;;;;;4914360;29;20068;-72
2023/05/20 05:59:25;;;;;;;3.42;1.33;;;14.40;99.90;;;;;;4929703;29;20047;-74
2023/05/20 06:01:51;;;;;;;3.95;1.85;;;14.50;99.90;;;;;;4924256;29;20038;-73
2023/05/20 06:04:17;;;;;;;2.17;1.27;;;14.60;99.90;;;;;;4930215;29;20392;-72
2023/05/20 06:06:43;;;;;;;3.47;1.70;;;14.70;99.90;;;;;;4914347;29;20564;-72
2023/05/20 06:09:08;;;;;;;2.65;1.50;;;14.60;99.90;;;;;;4929446;29;20042;-69
2023/05/20 06:11:34;;;;;;;2.38;1.17;;;14.70;99.90;;;;;;4925103;29;20031;-70
2023/05/20 06:14:00;;;;;;;2.00;1.40;;;14.90;99.90;;;;;;4929682;29;20706;-73
2023/05/20 06:16:26;;;;;;;2.30;1.30;;;14.90;99.90;;;;;;4933239;29;20028;-70
2023/05/20 06:18:55;;;;;;;3.05;1.40;;;15.00;99.90;;;;;;4929679;29;20035;-70
2023/05/20 06:21:22;;;;;;;1.95;1.17;;;14.90;99.90;;;;;;4916608;29;20115;-70
2023/05/20 06:23:48;;;;;;;4.60;1.90;;;15.10;99.90;;;;;;4926943;29;20048;-69
2023/05/20 06:26:14;;;;;;;2.90;1.45;;;15.20;99.90;;;;;;4916573;29;20088;-70
2023/05/20 06:28:39;;;;;;;2.85;1.30;;;15.20;99.90;;;;;;4926835;29;20039;-70
2023/05/20 06:31:05;;;;;;;6.95;1.63;;;15.40;99.90;;;;;;4941722;28;20063;-68
2023/05/20 06:33:31;;;;;;;3.08;1.50;;;15.50;99.90;;;;;;4940549;29;20038;-71
2023/05/20 06:35:57;;;;;;;4.22;2.20;;;15.70;99.90;;;;;;4935576;29;20020;-69
2023/05/20 06:38:23;;;;;;;5.85;2.22;;;15.80;99.90;;;;;;4925051;29;20039;-69
2023/05/20 06:40:50;;;;;;;3.15;1.67;;;15.90;99.90;;;;;;4932252;29;20046;-68
2023/05/20 06:43:16;;;;;;;2.55;1.55;;;16.10;99.90;;;;;;4931404;29;20031;-69
2023/05/20 06:45:43;;;;;;;2.65;1.38;;;16.20;99.90;;;;;;4923056;29;20032;-70
2023/05/20 06:48:09;;;;;;;2.85;1.55;;;16.20;99.90;;;;;;4924721;29;20480;-72
2023/05/20 06:50:35;;;;;;;3.50;1.50;;;16.30;99.90;;;;;;4928057;29;20042;-70
2023/05/20 06:53:01;;;;;;;2.55;1.27;;;16.40;99.90;;;;;;4933175;29;20036;-70
2023/05/20 06:55:27;;;;;;;3.17;1.77;;;16.50;99.90;;;;;;4926146;29;20040;-69
2023/05/20 06:57:53;;;;;;;2.15;1.25;;;16.50;99.90;;;;;;4922533;29;20046;-69
2023/05/20 07:00:19;;;;;;;2.10;1.30;;;16.60;99.90;;;;;;4935411;29;20090;-68
2023/05/20 07:02:45;;;;;;;3.50;1.52;;;16.60;99.90;;;;;;4933138;29;20054;-69
2023/05/20 07:05:11;;;;;;;2.65;1.60;;;16.60;99.90;;;;;;4950716;29;20114;-67
2023/05/20 07:07:37;;;;;;;3.42;1.60;;;16.60;99.90;;;;;;4947374;29;20034;-67
2023/05/20 07:10:04;;;;;;;2.78;1.20;;;16.40;99.90;;;;;;4928456;29;20036;-67
2023/05/20 07:12:34;;;;;;;4.72;2.05;;;16.40;99.90;;;;;;4931872;29;20070;-68
2023/05/20 07:15:00;;;;;;;3.40;1.90;;;16.30;99.90;;;;;;4929356;29;20076;-68
2023/05/20 07:17:28;;;;;;;4.07;1.88;;;16.40;99.90;;;;;;4919073;29;20031;-69
2023/05/20 07:19:55;;;;;;;2.80;2.00;;;16.60;99.90;;;;;;4930243;29;20103;-67
2023/05/20 07:22:21;;;;;;;2.72;1.67;;;16.90;99.90;;;;;;4918005;29;20055;-68
2023/05/20 07:24:47;;;;;;;3.38;1.92;;;17.00;99.90;;;;;;4950216;29;20091;-68
2023/05/20 07:27:12;;;;;;;3.63;1.73;;;17.10;99.90;;;;;;4946694;29;20028;-68
2023/05/20 07:29:38;;;;;;;3.47;1.77;;;17.20;99.90;;;;;;4935250;29;20070;-69
2023/05/20 07:32:05;;;;;;;4.53;1.77;;;17.30;99.90;;;;;;4933260;29;20399;-68
2023/05/20 07:34:30;;;;;;;2.03;1.38;;;17.50;99.90;;;;;;4932207;29;20036;-68
2023/05/20 07:36:57;;;;;;;5.60;1.75;;;17.70;99.90;;;;;;4934787;29;20049;-68
2023/05/20 07:39:23;;;;;;;4.53;1.83;;;17.80;99.90;;;;;;4951410;28;20039;-68
2023/05/20 07:41:49;;;;;;;3.80;1.60;;;18.00;99.90;;;;;;4934908;29;20560;-68
2023/05/20 07:44:17;;;;;;;4.00;2.08;;;18.00;99.90;;;;;;4949284;29;20080;-69
2023/05/20 07:46:44;;;;;;;10.05;2.35;;;18.10;99.90;;;;;;4949626;29;20031;-68
2023/05/20 07:49:10;;;;;;;4.70;2.10;;;18.10;99.90;;;;;;4931955;29;20526;-68
2023/05/20 07:51:36;;;;;;;4.78;1.80;;;18.00;99.90;;;;;;4914847;29;20400;-68
2023/05/20 07:54:02;;;;;;;3.33;1.77;;;17.90;99.90;;;;;;4931632;29;20036;-68
2023/05/20 07:56:28;;;;;;;6.90;2.25;;;18.00;99.90;;;;;;4916832;29;20119;-69
2023/05/20 07:59:02;;;;;;;3.25;1.67;;;18.00;99.90;;;;;;4929180;29;20111;-68
2023/05/20 08:01:28;;;;;;;2.72;1.90;;;18.10;99.90;;;;;;4934921;29;20404;-68
2023/05/20 08:03:54;;;;;;;3.17;1.63;;;18.10;99.90;;;;;;4946614;29;20036;-68
2023/05/20 08:06:23;;;;;;;3.40;1.90;;;17.90;99.90;;;;;;4934528;29;20039;-68
2023/05/20 08:08:48;;;;;;;3.40;2.00;;;18.00;99.90;;;;;;4931515;29;20495;-68
2023/05/20 08:11:14;;;;;;;5.18;1.70;;;18.00;99.90;;;;;;4925547;29;20031;-69
2023/05/20 08:13:40;;;;;;;3.88;1.95;;;18.10;99.90;;;;;;4931425;29;20032;-67
2023/05/20 08:16:06;;;;;;;4.95;2.08;;;18.20;99.90;;;;;;4919825;29;20032;-67
2023/05/20 08:18:35;;;;;;;3.92;2.03;;;18.20;99.90;;;;;;4925808;29;20127;-67
2023/05/20 08:21:01;;;;;;;2.72;1.75;;;18.40;99.90;;;;;;4918734;29;20036;-67
2023/05/20 08:23:27;;;;;;;6.43;1.77;;;18.40;99.90;;;;;;4925640;29;20399;-67
2023/05/20 08:25:53;;;;;;;2.95;1.67;;;18.50;99.90;;;;;;4921144;29;20032;-67
2023/05/20 08:28:19;;;;;;;2.72;1.50;;;18.50;99.90;;;;;;4924198;29;20091;-67
2023/05/20 08:30:46;;;;;;;4.28;2.00;;;18.50;99.90;;;;;;4934250;29;20106;-67
2023/05/20 08:33:12;;;;;;;5.32;1.90;;;18.60;99.90;;;;;;4931390;29;20095;-67
2023/05/20 08:35:39;;;;;;;4.40;1.85;;;18.80;99.90;;;;;;4933647;29;20039;-67
2023/05/20 08:38:05;;;;;;;2.75;1.70;;;18.80;99.90;;;;;;4930959;29;20063;-67
2023/05/20 08:40:34;;;;;;;5.13;2.25;;;18.90;99.90;;;;;;4925245;29;20464;-67
2023/05/20 08:43:00;;;;;;;4.25;2.03;;;18.90;99.90;;;;;;4931332;29;20082;-67
2023/05/20 08:45:28;;;;;;;3.35;2.05;;;19.20;99.90;;;;;;4924078;29;20028;-68
2023/05/20 08:47:54;;;;;;;3.42;1.65;;;19.30;99.90;;;;;;4921877;29;20119;-68
2023/05/20 08:50:20;;;;;;;3.67;2.05;;;19.50;99.90;;;;;;4932499;29;20465;-67
2023/05/20 08:52:50;;;;;;;5.75;2.00;;;19.60;99.90;;;;;;4930737;29;20027;-67
2023/05/20 08:55:45;;;;;;;5.35;2.70;;;19.80;99.90;;;;;;4925489;29;20115;-67
2023/05/20 08:58:14;;;;;;;4.53;1.67;;;20.00;99.90;;;;;;4924203;29;20510;-67
2023/05/20 09:00:40;;;;;;;3.53;1.90;;;20.10;99.90;;;;;;4933618;29;20112;-68
2023/05/20 09:03:06;;;;;;;2.65;1.67;;;20.00;99.90;;;;;;4930771;29;20126;-67
2023/05/20 09:05:33;;;;;;;6.47;2.33;;;20.20;99.90;;;;;;4922849;29;20115;-67
2023/05/20 09:08:10;;;;;;;3.75;2.08;;;20.20;99.90;;;;;;4921061;29;20028;-67
2023/05/20 09:10:38;;;;;;;2.45;1.67;;;20.20;99.90;;;;;;4924557;29;20023;-67
2023/05/20 09:13:06;;;;;;;4.80;1.77;;;20.30;99.90;;;;;;4945287;29;20740;-67
2023/05/20 09:15:33;;;;;;;3.63;1.83;;;20.50;99.90;;;;;;4922834;29;20559;-67
2023/05/20 09:18:01;;;;;;;4.20;2.10;;;20.40;99.90;;;;;;4920947;29;20075;-67
2023/05/20 09:20:30;;;;;;;3.60;2.10;;;20.50;99.90;;;;;;4923402;29;20111;-67
2023/05/20 09:23:02;;;;;;;3.60;1.90;;;20.60;99.90;;;;;;4921727;29;20444;-67
2023/05/20 09:25:28;;;;;;;3.83;1.75;;;20.60;99.90;;;;;;4923407;29;20064;-67
2023/05/20 09:27:54;;;;;;;7.95;2.53;;;20.50;99.90;;;;;;4920064;29;20563;-67
2023/05/20 09:30:21;;;;;;;4.00;1.77;;;20.60;99.90;;;;;;4947887;29;20074;-67
2023/05/20 09:32:58;;;;;;;5.32;2.30;;;20.50;99.90;;;;;;4944946;29;20036;-67
2023/05/20 09:35:25;;;;;;;4.35;1.95;;;20.60;99.90;;;;;;4932379;29;20563;-67
2023/05/20 09:37:54;;;;;;;3.10;1.88;;;20.60;99.90;;;;;;4944365;29;20040;-67
2023/05/20 09:40:27;;;;;;;3.45;1.85;;;20.80;99.90;;;;;;4923655;29;20068;-66
2023/05/20 09:43:00;;;;;;;3.67;2.03;;;20.50;99.90;;;;;;4921350;29;20036;-67
2023/05/20 09:45:26;;;;;;;5.65;2.38;;;20.80;99.90;;;;;;4947372;29;20126;-67
2023/05/20 09:47:54;;;;;;;4.97;2.33;;;21.00;99.90;;;;;;4945000;29;20119;-67
2023/05/20 09:50:21;;;;;;;5.47;2.10;;;21.30;99.90;;;;;;4923581;29;20505;-67
2023/05/20 09:52:52;;;;;;;4.97;2.17;;;21.30;99.70;;;;;;4918966;29;20484;-67
2023/05/20 09:55:21;;;;;;;7.38;1.88;;;21.50;99.10;;;;;;4924188;29;20111;-67
2023/05/20 09:57:47;;;;;;;4.40;2.05;;;21.20;99.40;;;;;;4917855;29;20443;-67
2023/05/20 10:00:18;;;;;;;3.92;1.85;;;21.50;99.20;;;;;;4947377;29;20041;-69
2023/05/20 10:02:50;;;;;;;4.85;2.10;;;21.50;98.60;;;;;;4944017;29;20072;-67
2023/05/20 10:05:30;;;;;;;15.15;2.55;;;21.70;98.80;;;;;;4947518;29;20040;-67
2023/05/20 10:08:37;;;;;;;6.53;2.33;;;22.00;98.70;;;;;;4929828;29;20377;-67
2023/05/20 10:11:52;;;;;;;3.90;1.80;;;22.00;98.30;;;;;;4928553;29;20055;-67
2023/05/20 10:14:32;;;;;;;4.90;2.30;;;22.10;98.50;;;;;;4931624;29;20036;-67
2023/05/20 10:17:49;;;;;;;5.15;2.25;;;22.10;98.00;;;;;;4912507;29;20512;-67
2023/05/20 10:20:15;;;;;;;3.05;1.90;;;22.10;97.90;;;;;;4933256;29;20046;-67
2023/05/20 10:22:44;;;;;;;4.20;2.53;;;22.60;98.00;;;;;;4935835;29;20035;-67
2023/05/20 10:25:24;;;;;;;3.58;1.90;;;23.00;97.10;;;;;;4950555;29;20059;-68
2023/05/20 10:27:50;;;;;;;3.65;2.03;;;23.50;96.50;;;;;;4933728;29;20031;-68
2023/05/20 10:30:21;;;;;;;5.97;1.80;;;23.50;96.00;;;;;;4942090;29;20043;-68
2023/05/20 10:32:56;;;;;;;4.72;2.40;;;23.30;95.70;;;;;;4937634;28;20043;-68
2023/05/20 10:35:26;;;;;;;3.55;2.25;;;23.30;95.90;;;;;;4950385;28;20028;-68
2023/05/20 10:37:54;;;;;;;4.47;2.50;;;23.30;95.50;;;;;;4954011;28;20038;-68
2023/05/20 10:40:21;;;;;;;3.90;2.40;;;23.50;95.70;;;;;;4971734;23;20121;-74
2023/05/20 10:42:48;;;;;;;3.75;1.83;;;22.80;96.00;;;;;;4968715;28;20517;-74
2023/05/20 10:45:28;;;;;;;4.30;2.08;;;22.90;96.50;;;;;;4963888;28;20030;-73
2023/05/20 10:47:57;;;;;;;4.57;2.55;;;23.50;96.30;;;;;;4962976;28;20065;-76
2023/05/20 10:50:35;;;;;;;4.10;2.15;;;23.70;95.20;;;;;;4971346;28;20171;-75
2023/05/20 10:53:05;;;;;;;4.22;2.30;;;24.20;95.10;;;;;;4939277;29;20036;-74
2023/05/20 10:55:37;;;;;;;3.80;1.83;;;24.40;94.60;;;;;;4925350;29;20039;-74
2023/05/20 10:58:04;;;;;;;4.95;2.15;;;24.50;94.40;;;;;;4918233;29;20039;-75
2023/05/20 11:00:35;;;;;;;4.97;2.20;;;24.50;94.20;;;;;;4951377;28;20035;-74
2023/05/20 11:03:02;;;;;;;;;;;24.40;94.10;;;;;;4949983;29;20035;-75
2023/05/20 11:05:30;;;;;;;3.65;2.25;;;24.20;94.20;;;;;;4950945;28;19926;-75
2023/05/20 11:08:26;;;;;;;4.57;2.45;;;24.00;94.40;;;;;;4947721;29;20027;-74
2023/05/20 11:10:54;;;;;;;12.07;2.45;;;24.10;94.50;;;;;;4961726;28;20047;-75
2023/05/20 11:13:20;;;;;;;3.70;2.10;;;24.30;94.90;;;;;;4954829;28;20035;-70
2023/05/20 11:15:48;;;;;;;3.22;1.85;;;24.80;93.40;;;;;;4953198;29;20032;-71
2023/05/20 11:18:14;;;;;;;3.67;1.92;;;25.10;93.60;;;;;;4945767;29;20035;-72
2023/05/20 11:20:41;;;;;;;7.80;2.40;;;25.20;93.10;;;;;;4938247;29;20035;-73
2023/05/20 11:23:12;;;;;;;3.25;2.10;;;25.50;92.50;;;;;;4947536;28;20082;-73
2023/05/20 11:25:38;;;;;;;8.15;2.00;;;25.10;92.50;;;;;;4940766;28;20039;-73
2023/05/20 11:28:12;;;;;;;3.83;2.08;;;24.60;92.80;;;;;;4968640;28;20427;-73
2023/05/20 11:30:40;;;;;;;3.35;2.08;;;24.30;93.40;;;;;;4955302;28;20035;-73
2023/05/20 11:33:06;;;;;;;3.45;2.08;;;24.20;93.40;;;;;;4968591;28;20042;-73
2023/05/20 11:35:32;;;;;;;4.75;2.17;;;23.90;93.30;;;;;;4951057;28;20031;-73
2023/05/20 11:38:08;;;;;;;3.92;2.38;;;23.60;93.80;;;;;;4939309;29;20399;-73
2023/05/20 11:40:37;;;;;;;6.63;1.92;;;23.20;94.50;;;;;;4934132;29;20530;-72
2023/05/20 11:43:03;;;;;;;4.60;1.90;;;23.70;93.80;;;;;;4944838;28;20035;-73
2023/05/20 11:45:43;;;;;;;4.63;2.22;;;23.90;93.50;;;;;;4935518;29;20043;-72
2023/05/20 11:48:11;;;;;;;3.17;2.03;;;23.60;94.00;;;;;;4966694;28;20062;-72
2023/05/20 11:50:43;;;;;;;4.38;1.98;;;24.10;93.80;;;;;;4951532;28;20043;-72
2023/05/20 11:53:15;;;;;;;3.40;2.13;;;24.60;93.30;;;;;;4969078;28;20581;-73
2023/05/20 11:55:57;;;;;;;4.03;2.72;;;24.90;93.10;;;;;;4966481;28;20104;-71
2023/05/20 11:58:26;;;;;;;6.22;2.53;;;24.30;92.80;;;;;;4968801;28;20117;-72
2023/05/20 12:00:52;;;;;;;6.00;2.30;;;24.30;93.10;;;;;;4958279;28;20039;-72
2023/05/20 12:03:18;;;;;;;3.60;2.00;;;24.70;93.00;;;;;;4968916;28;20035;-72
2023/05/20 12:05:46;;;;;;;5.13;2.58;;;24.60;92.80;;;;;;4951350;29;20046;-72
2023/05/20 12:08:12;;;;;;;4.90;2.40;;;24.20;93.00;;;;;;4968743;28;20376;-73
2023/05/20 12:10:38;;;;;;;4.45;2.03;;;24.00;93.40;;;;;;4965567;28;20098;-72
2023/05/20 12:13:07;;;;;;;4.05;2.30;;;24.50;93.10;;;;;;4954152;29;20450;-73
2023/05/20 12:15:37;;;;;;;5.97;2.25;;;24.90;92.70;;;;;;4951695;29;20046;-73
2023/05/20 12:18:03;;;;;;;3.60;2.05;;;25.30;92.60;;;;;;4946708;28;20521;-72
2023/05/20 12:20:30;;;;;;;4.13;1.90;;;25.40;92.30;;;;;;4943573;29;20045;-73
2023/05/20 12:22:56;;;;;;;4.20;2.40;;;26.00;91.70;;;;;;4948642;28;20040;-72
2023/05/20 12:25:22;;;;;;;4.82;2.47;;;25.10;91.90;;;;;;4947814;28;20039;-71
2023/05/20 12:27:49;;;;;;;4.82;2.13;;;25.10;92.60;;;;;;4952525;29;20086;-74
2023/05/20 12:30:20;;;;;;;3.72;2.15;;;24.60;92.00;;;;;;4948239;29;20068;-73
2023/05/20 12:32:49;;;;;;;4.70;2.15;;;24.70;91.90;;;;;;4940925;28;20432;-72
2023/05/20 12:35:15;;;;;;;3.35;1.98;;;24.40;92.80;;;;;;4944459;29;20038;-72
2023/05/20 12:37:42;;;;;;;4.57;2.22;;;23.70;93.40;;;;;;4940661;29;20028;-73
2023/05/20 12:40:10;;;;;;;3.65;2.10;;;24.10;93.20;;;;;;4941087;28;20084;-71
2023/05/20 12:42:40;;;;;;;3.17;1.90;;;24.40;92.90;;;;;;4960086;28;20038;-70
2023/05/20 12:45:08;;;;;;;3.45;2.08;;;24.20;93.00;;;;;;4954356;28;20487;-71
2023/05/20 12:47:34;;;;;;;3.15;2.13;;;24.00;93.00;;;;;;4942332;28;20064;-70
2023/05/20 12:50:01;;;;;;;4.00;2.28;;;24.10;92.60;;;;;;4940001;29;20039;-72